Time;durP1;ratioP1;P1;durP2;ratioP2;P2;SDS_P1;SDS_P2;PMS_P1;PMS_P2;Temp;Humidity;BMP_temperature;BMP_pressure;BME280_temperature;BME280_humidity;BME280_pressure;Samples;Min_cycle;Max_cycle;Signal;HPM_P1;HPM_P2
2022/09/18 00:00:53;;;;;;;;;6.50;5.00;;;;;15.53;43.22;101525.69;5100192;27;45335;-50
2022/09/18 00:03:19;;;;;;;;;5.50;5.00;;;;;15.54;43.17;101520.34;5099637;27;45358;-45
2022/09/18 00:05:44;;;;;;;;;7.75;6.25;;;;;15.55;43.32;101522.09;5094863;27;46019;-46
2022/09/18 00:08:10;;;;;;;;;4.75;4.25;;;;;15.57;43.09;101519.41;5101312;27;45425;-44
2022/09/18 00:10:43;;;;;;;;;7.00;4.00;;;;;15.55;42.98;101522.09;5085740;27;57453;-48
2022/09/18 00:13:09;;;;;;;;;4.00;4.00;;;;;15.54;42.98;101516.84;5080423;27;45398;-47
2022/09/18 00:15:35;;;;;;;;;5.25;3.50;;;;;15.51;43.31;101515.19;5096244;27;45272;-45
2022/09/18 00:18:00;;;;;;;;;4.25;2.50;;;;;15.53;43.35;101512.50;5100313;27;45446;-44
2022/09/18 00:20:26;;;;;;;;;4.25;4.25;;;;;15.49;43.24;101508.25;5098132;27;53719;-45
2022/09/18 00:22:51;;;;;;;;;4.50;3.50;;;;;15.51;43.27;101509.03;5097656;27;45391;-47
2022/09/18 00:25:16;;;;;;;;;6.25;4.00;;;;;15.49;43.20;101503.84;5099560;27;60714;-44
2022/09/18 00:27:42;;;;;;;;;6.50;5.00;;;;;15.49;43.24;101506.47;5108801;27;66658;-46
2022/09/18 00:30:08;;;;;;;;;4.25;4.25;;;;;15.50;43.50;101520.53;5103159;27;45510;-47
2022/09/18 00:32:34;;;;;;;;;6.25;4.00;;;;;15.50;43.60;101509.97;5090448;27;45293;-48
2022/09/18 00:34:59;;;;;;;;;4.75;4.00;;;;;15.50;43.55;101513.47;5099581;27;45307;-50
2022/09/18 00:37:24;;;;;;;;;5.50;4.00;;;;;15.49;43.21;101516.16;5085816;27;75179;-47
2022/09/18 00:39:50;;;;;;;;;5.00;3.25;;;;;15.49;43.34;101513.50;5095660;27;57957;-49
2022/09/18 00:42:18;;;;;;;;;6.75;4.00;;;;;15.49;43.72;101510.88;5085326;27;68457;-50
2022/09/18 00:44:44;;;;;;;;;4.50;4.00;;;;;15.48;43.76;101509.19;5091467;27;45457;-44
2022/09/18 00:47:09;;;;;;;;;3.50;3.50;;;;;15.47;43.30;101516.19;5094461;27;47379;-47
2022/09/18 00:50:00;;;;;;;;;5.33;2.33;;;;;15.46;43.49;101519.78;5100677;27;45361;-47
2022/09/18 00:52:30;;;;;;;;;5.25;3.25;;;;;15.46;43.87;101516.28;5090779;27;45461;-51
2022/09/18 00:55:00;;;;;;;;;5.50;5.00;;;;;15.46;43.66;101514.50;5077300;27;45455;-45
2022/09/18 00:57:29;;;;;;;;;6.50;6.25;;;;;15.47;44.01;101510.06;5094800;27;45456;-47
2022/09/18 00:59:54;;;;;;;;;4.50;4.50;;;;;15.48;43.46;101517.94;5089159;27;45464;-47
2022/09/18 01:02:19;;;;;;;;;2.50;2.50;;;;;15.47;43.75;101508.28;5092821;27;69411;-46
2022/09/18 01:04:46;;;;;;;;;2.75;2.50;;;;;15.45;43.48;101518.03;5090657;27;60730;-48
2022/09/18 01:07:33;;;;;;;;;5.00;3.50;;;;;15.42;43.52;101523.41;5084378;27;46464;-47
2022/09/18 01:10:10;;;;;;;;;4.50;3.00;;;;;15.38;43.92;101521.81;5089534;27;45336;-45
2022/09/18 01:12:45;;;;;;;;;7.00;3.00;;;;;15.37;43.86;101522.72;5084219;27;45333;-50
2022/09/18 01:15:47;;;;;;;;;2.50;2.50;;;;;15.34;43.91;101514.91;5093815;27;45222;-48
2022/09/18 01:18:28;;;;;;;;;3.75;3.00;;;;;15.33;44.04;101511.44;5097148;27;46936;-50
2022/09/18 01:21:11;;;;;;;;;6.25;3.00;;;;;15.34;44.23;101512.28;5100430;27;45525;-45
2022/09/18 01:23:58;;;;;;;;;5.25;3.25;;;;;15.34;44.03;101514.91;5093535;27;45214;-47
2022/09/18 01:26:42;;;;;;;;;3.75;3.50;;;;;15.34;44.41;101507.00;5095945;27;45397;-48
2022/09/18 01:29:21;;;;;;;;;6.00;4.75;;;;;15.34;44.39;101507.84;5088199;27;46279;-48
2022/09/18 01:31:57;;;;;;;;;4.00;3.00;;;;;15.34;43.89;101502.59;5092016;27;45774;-44
2022/09/18 01:34:33;;;;;;;;;4.75;3.00;;;;;15.34;43.80;101504.38;5093572;27;45553;-46
2022/09/18 01:37:09;;;;;;;;;4.00;3.00;;;;;15.34;43.92;101507.84;5084610;27;45260;-48
2022/09/18 01:39:42;;;;;;;;;4.00;2.00;;;;;15.34;44.22;101507.84;5091947;27;46478;-49
2022/09/18 01:42:09;;;;;;;;;3.00;3.00;;;;;15.33;44.04;101506.16;5098952;27;45335;-51
2022/09/18 01:44:36;;;;;;;;;4.00;2.00;;;;;15.33;43.97;101508.78;5093699;27;68370;-51
2022/09/18 01:47:08;;;;;;;;;3.75;2.50;;;;;15.31;44.12;101504.47;5094602;27;45243;-50
2022/09/18 01:49:38;;;;;;;;;4.25;3.00;;;;;15.31;44.57;101507.97;5093058;27;45320;-51
2022/09/18 01:52:16;;;;;;;;;4.75;3.50;;;;;15.29;44.10;101503.66;5087695;27;45852;-48
2022/09/18 01:54:44;;;;;;;;;4.75;3.75;;;;;15.26;44.47;101503.75;5084060;27;45296;-49
2022/09/18 01:57:13;;;;;;;;;3.00;2.25;;;;;15.23;44.32;101502.09;5088918;27;45593;-48
2022/09/18 01:59:44;;;;;;;;;4.25;2.25;;;;;15.20;44.20;101502.19;5089808;27;47306;-49
2022/09/18 02:02:17;;;;;;;;;2.00;2.00;;;;;15.18;44.33;101496.97;5089535;27;45490;-51
2022/09/18 02:04:43;;;;;;;;;3.25;2.75;;;;;15.16;44.28;101493.53;5099777;27;45373;-52
2022/09/18 02:07:16;;;;;;;;;2.75;2.00;;;;;15.16;44.67;101493.53;5094270;27;72102;-47
2022/09/18 02:09:42;;;;;;;;;3.50;2.75;;;;;15.15;44.66;101497.06;5097934;27;46136;-46
2022/09/18 02:12:10;;;;;;;;;2.00;2.00;;;;;15.16;44.28;101492.69;5083488;27;45379;-51
2022/09/18 02:14:45;;;;;;;;;3.00;3.00;;;;;15.14;44.46;101491.88;5106727;27;45217;-48
2022/09/18 02:17:34;;;;;;;;;4.00;3.00;;;;;15.11;44.54;101484.06;5084818;27;45247;-50
2022/09/18 02:20:06;;;;;;;;;3.25;2.00;;;;;15.13;44.45;101498.06;5095682;27;45337;-46
2022/09/18 02:22:32;;;;;;;;;4.00;2.50;;;;;15.11;44.33;101489.34;5100224;27;45291;-47
2022/09/18 02:25:00;;;;;;;;;2.00;2.00;;;;;15.09;44.60;101489.38;5099338;27;45262;-45
2022/09/18 02:27:26;;;;;;;;;4.00;4.00;;;;;15.06;45.01;101484.22;5098389;27;45432;-43
2022/09/18 02:29:52;;;;;;;;;3.75;3.75;;;;;15.08;44.83;101495.56;5095104;27;58720;-46
2022/09/18 02:32:18;;;;;;;;;5.00;3.75;;;;;15.06;45.20;101494.75;5103511;27;45392;-47
2022/09/18 02:34:43;;;;;;;;;2.00;2.00;;;;;15.05;44.57;101485.13;5083250;27;69599;-46
2022/09/18 02:37:18;;;;;;;;;3.75;2.00;;;;;15.05;44.74;101487.78;5125199;27;72837;-45
2022/09/18 02:40:08;;;;;;;;;2.50;2.00;;;;;14.99;44.92;101491.47;5099091;27;46217;-48
2022/09/18 02:42:53;;;;;;;;;3.00;2.25;;;;;14.93;44.88;101494.31;5097685;27;45388;-48
2022/09/18 02:45:46;;;;;;;;;2.25;2.25;;;;;14.87;45.09;101488.38;5099391;27;45508;-45
2022/09/18 02:48:18;;;;;;;;;4.00;3.00;;;;;14.81;45.03;101486.81;5107678;27;45266;-49
2022/09/18 02:50:46;;;;;;;;;4.75;3.00;;;;;14.79;45.22;101488.63;5082539;27;46295;-48
2022/09/18 02:53:20;;;;;;;;;3.25;2.00;;;;;14.79;45.15;101488.63;5086155;27;45288;-46
2022/09/18 02:55:50;;;;;;;;;2.50;2.50;;;;;14.79;44.95;101476.31;5095472;27;45201;-48
2022/09/18 02:58:31;;;;;;;;;3.00;3.00;;;;;14.80;45.29;101478.03;5097016;27;45259;-43
2022/09/18 03:00:59;;;;;;;;;4.50;3.75;;;;;14.79;45.38;101471.03;5094042;27;47086;-43
2022/09/18 03:03:26;;;;;;;;;4.25;3.50;;;;;14.78;45.62;101469.34;5120838;27;45378;-44
2022/09/18 03:05:52;;;;;;;;;5.00;4.50;;;;;14.79;45.16;101463.13;5091318;27;45402;-43
2022/09/18 03:08:18;;;;;;;;;2.50;2.50;;;;;14.79;45.36;101464.91;5093814;27;59189;-44
2022/09/18 03:10:43;;;;;;;;;3.50;2.00;;;;;14.77;45.42;101462.31;5093224;27;46167;-46
2022/09/18 03:13:08;;;;;;;;;6.75;3.00;;;;;14.77;45.43;101464.13;5086044;27;45303;-44
2022/09/18 03:15:34;;;;;;;;;3.00;3.00;;;;;14.73;45.50;101460.72;5091514;27;67388;-46
2022/09/18 03:17:59;;;;;;;;;4.00;2.00;;;;;14.73;45.20;101455.44;5097333;27;72113;-47
2022/09/18 03:20:24;;;;;;;;;1.00;1.00;;;;;14.69;45.33;101458.22;5092881;27;74339;-48
2022/09/18 03:22:50;;;;;;;;;2.00;2.00;;;;;14.64;45.17;101454.88;5098678;27;45342;-46
2022/09/18 03:25:15;;;;;;;;;2.50;2.00;;;;;14.60;45.20;101456.75;5097563;27;64963;-47
2022/09/18 03:27:41;;;;;;;;;3.50;2.00;;;;;14.58;45.61;101453.31;5089162;27;72505;-46
2022/09/18 03:30:07;;;;;;;;;3.50;2.00;;;;;14.58;45.43;101458.56;5096792;27;46329;-48
2022/09/18 03:32:33;;;;;;;;;2.75;2.00;;;;;14.56;45.41;101449.81;5101973;27;45428;-44
2022/09/18 03:34:58;;;;;;;;;3.75;2.00;;;;;14.57;45.71;101452.41;5099918;27;58991;-44
2022/09/18 03:37:23;;;;;;;;;3.00;3.00;;;;;14.60;45.46;101457.59;5099722;27;45457;-44
2022/09/18 03:39:49;;;;;;;;;3.00;3.00;;;;;14.59;45.47;101452.41;5096664;27;73599;-44
2022/09/18 03:42:14;;;;;;;;;5.75;2.50;;;;;14.59;45.95;101448.00;5093143;27;68996;-44
2022/09/18 03:44:39;;;;;;;;;2.75;2.00;;;;;14.60;45.46;101449.69;5093573;27;45335;-44
2022/09/18 03:47:08;;;;;;;;;2.25;1.75;;;;;14.60;45.79;101446.22;5087558;27;45307;-44
2022/09/18 03:49:33;;;;;;;;;2.00;2.00;;;;;14.57;45.32;101444.50;5095391;27;45352;-46
2022/09/18 03:51:58;;;;;;;;;1.00;1.00;;;;;14.56;45.72;101447.19;5093216;27;70275;-44
2022/09/18 03:54:24;;;;;;;;;4.50;4.00;;;;;14.57;45.74;101446.25;5100887;27;64448;-44
2022/09/18 03:56:50;;;;;;;;;4.00;2.50;;;;;14.57;45.61;101447.16;5093767;27;45405;-46
2022/09/18 03:59:15;;;;;;;;;3.00;3.00;;;;;14.58;46.18;101445.41;5108596;27;45934;-47
2022/09/18 04:01:41;;;;;;;;;2.75;2.75;;;;;14.58;45.68;101443.63;5098386;27;45351;-44
2022/09/18 04:04:06;;;;;;;;;3.25;2.75;;;;;14.58;46.39;101453.31;5099191;27;45231;-44
2022/09/18 04:06:31;;;;;;;;;3.75;3.00;;;;;14.56;45.95;101448.03;5103001;27;55162;-45
2022/09/18 04:08:57;;;;;;;;;4.75;2.00;;;;;14.56;45.89;101442.78;5096191;27;74281;-44
2022/09/18 04:11:22;;;;;;;;;4.00;4.00;;;;;14.57;46.30;101456.81;5099111;27;45271;-44
2022/09/18 04:13:47;;;;;;;;;2.00;2.00;;;;;14.55;45.87;101448.94;5097755;27;45229;-44
2022/09/18 04:16:13;;;;;;;;;4.00;3.50;;;;;14.52;46.00;101443.81;5094967;27;66481;-45
2022/09/18 04:18:38;;;;;;;;;2.00;1.50;;;;;14.48;46.14;101452.69;5095610;27;74158;-45
2022/09/18 04:21:04;;;;;;;;;3.75;3.00;;;;;14.45;46.47;101447.53;5092145;27;45334;-44
2022/09/18 04:23:29;;;;;;;;;2.00;2.00;;;;;14.43;45.96;101444.94;5100085;27;45344;-46
2022/09/18 04:25:54;;;;;;;;;4.75;3.00;;;;;14.43;46.17;101452.84;5098291;27;45455;-44
2022/09/18 04:28:20;;;;;;;;;6.50;3.00;;;;;14.44;46.76;101456.34;5097819;27;71406;-47
2022/09/18 04:30:46;;;;;;;;;3.00;2.00;;;;;14.44;46.26;101449.28;5094048;27;45274;-44
2022/09/18 04:33:11;;;;;;;;;2.25;2.25;;;;;14.45;46.11;101452.81;5096154;27;45378;-45
2022/09/18 04:35:37;;;;;;;;;5.75;3.00;;;;;14.46;46.57;101445.75;5091445;27;67623;-44
2022/09/18 04:38:02;;;;;;;;;2.75;2.75;;;;;14.44;46.44;101446.66;5101329;27;45589;-44
2022/09/18 04:40:27;;;;;;;;;3.00;3.00;;;;;14.48;46.28;101450.06;5100944;27;45436;-44
2022/09/18 04:42:53;;;;;;;;;4.25;3.50;;;;;14.44;46.50;101449.28;5096420;27;45499;-47
2022/09/18 04:45:18;;;;;;;;;2.00;2.00;;;;;14.43;46.38;101450.22;5099809;27;45523;-44
2022/09/18 04:47:45;;;;;;;;;3.00;3.00;;;;;14.40;46.37;101447.66;5098763;27;64738;-45
2022/09/18 04:50:10;;;;;;;;;3.00;3.00;;;;;14.39;46.89;101448.56;5098663;27;45344;-44
2022/09/18 04:52:35;;;;;;;;;5.25;2.75;;;;;14.41;46.84;101453.78;5091825;27;67400;-45
2022/09/18 04:55:01;;;;;;;;;6.00;3.50;;;;;14.41;46.64;101459.06;5093762;27;58355;-45
2022/09/18 04:57:26;;;;;;;;;2.75;2.00;;;;;14.42;47.11;101452.91;5096908;27;55856;-45
2022/09/18 04:59:51;;;;;;;;;4.25;3.00;;;;;14.42;47.12;101458.16;5095896;27;67328;-46
2022/09/18 05:02:18;;;;;;;;;3.00;2.00;;;;;14.40;46.56;101458.22;5094501;27;45387;-47
2022/09/18 05:04:43;;;;;;;;;5.00;3.50;;;;;14.40;47.23;101460.84;5092398;27;45468;-47
2022/09/18 05:07:08;;;;;;;;;2.00;2.00;;;;;14.40;46.82;101460.84;5096879;27;73922;-44
2022/09/18 05:09:34;;;;;;;;;3.50;3.00;;;;;14.38;47.36;101461.81;5098491;27;45343;-45
2022/09/18 05:11:59;;;;;;;;;2.00;2.00;;;;;14.36;47.08;101460.97;5091670;27;60955;-46
2022/09/18 05:14:24;;;;;;;;;4.00;2.00;;;;;14.37;47.36;101463.56;5089479;27;45675;-45
2022/09/18 05:16:50;;;;;;;;;6.00;3.00;;;;;14.39;47.25;101466.16;5089410;27;45329;-46
2022/09/18 05:19:15;;;;;;;;;2.75;2.00;;;;;14.41;47.30;101467.84;5090146;27;62131;-44
2022/09/18 05:21:40;;;;;;;;;3.00;3.00;;;;;14.41;46.75;101469.59;5087941;27;59668;-51
2022/09/18 05:24:06;;;;;;;;;5.50;2.25;;;;;14.37;47.26;101463.56;5100515;27;62268;-46
2022/09/18 05:26:31;;;;;;;;;3.00;2.50;;;;;14.33;47.21;101461.94;5102321;27;48544;-45
2022/09/18 05:28:56;;;;;;;;;3.00;3.00;;;;;14.33;47.50;101464.56;5093264;27;45638;-44
2022/09/18 05:31:22;;;;;;;;;2.75;2.00;;;;;14.35;47.25;101469.78;5100525;27;45338;-45
2022/09/18 05:33:47;;;;;;;;;3.00;2.00;;;;;14.34;47.53;101473.31;5106202;27;63556;-44
2022/09/18 05:36:12;;;;;;;;;3.00;3.00;;;;;14.34;47.48;101466.31;5091680;27;45340;-45
2022/09/18 05:38:38;;;;;;;;;3.25;2.00;;;;;14.34;47.70;101468.06;5111205;27;72747;-44
2022/09/18 05:41:03;;;;;;;;;3.00;3.00;;;;;14.34;47.74;101468.94;5087925;27;45404;-46
2022/09/18 05:43:29;;;;;;;;;2.75;2.00;;;;;14.35;47.80;101467.16;5092256;27;45433;-48
2022/09/18 05:45:55;;;;;;;;;4.00;3.00;;;;;14.34;47.65;101468.06;5101493;27;45413;-44
2022/09/18 05:48:20;;;;;;;;;3.00;3.00;;;;;14.36;47.41;101469.75;5105404;27;45326;-44
2022/09/18 05:50:47;;;;;;;;;4.50;3.00;;;;;14.35;47.89;101465.38;5100024;27;45335;-45
2022/09/18 05:53:15;;;;;;;;;3.75;2.50;;;;;14.36;47.75;101460.97;5108361;27;45445;-45
2022/09/18 05:55:40;;;;;;;;;1.50;1.50;;;;;14.34;47.58;101461.03;5091193;27;46224;-45
2022/09/18 05:58:09;;;;;;;;;5.25;3.00;;;;;14.37;47.43;101470.59;5101124;27;56841;-45
2022/09/18 06:00:35;;;;;;;;;4.00;2.00;;;;;14.33;47.50;101461.94;5096930;27;45375;-47
2022/09/18 06:03:02;;;;;;;;;2.75;2.00;;;;;14.32;47.45;101473.38;5077849;27;45505;-45
2022/09/18 06:05:30;;;;;;;;;4.00;3.00;;;;;14.31;47.67;101470.81;5099731;27;46300;-44
2022/09/18 06:08:00;;;;;;;;;3.50;2.00;;;;;14.27;47.71;101475.31;5097275;27;45767;-48
2022/09/18 06:10:26;;;;;;;;;4.00;2.25;;;;;14.29;47.81;101475.25;5095320;27;45421;-44
2022/09/18 06:13:02;;;;;;;;;3.50;2.00;;;;;14.30;48.18;101476.97;5090208;27;45858;-45
2022/09/18 06:15:27;;;;;;;;;4.00;3.00;;;;;14.31;47.90;101479.56;5095325;27;47514;-45
2022/09/18 06:17:52;;;;;;;;;3.00;2.75;;;;;14.31;48.03;101478.72;5090581;27;65356;-47
2022/09/18 06:20:18;;;;;;;;;2.75;2.00;;;;;14.31;48.45;101478.72;5090241;27;67144;-45
2022/09/18 06:22:44;;;;;;;;;1.25;1.25;;;;;14.31;48.36;101483.97;5099410;27;45549;-44
2022/09/18 06:25:09;;;;;;;;;3.25;2.50;;;;;14.29;48.42;101480.50;5098035;27;46188;-44
2022/09/18 06:27:35;;;;;;;;;4.00;2.00;;;;;14.29;48.55;101491.03;5091137;27;45261;-45
2022/09/18 06:30:00;;;;;;;;;2.00;2.00;;;;;14.27;48.40;101483.22;5086262;27;57118;-45
2022/09/18 06:32:26;;;;;;;;;3.75;2.25;;;;;14.27;48.21;101498.13;5091749;27;45373;-49
2022/09/18 06:34:51;;;;;;;;;2.50;2.00;;;;;14.24;48.50;101488.56;5084102;27;49434;-45
2022/09/18 06:37:17;;;;;;;;;2.00;2.00;;;;;14.20;48.86;101490.41;5086964;27;45429;-44
2022/09/18 06:39:43;;;;;;;;;3.00;2.00;;;;;14.19;48.32;101503.63;5102185;27;45472;-45
2022/09/18 06:42:08;;;;;;;;;2.75;2.75;;;;;14.18;48.49;101492.25;5099546;27;45429;-47
2022/09/18 06:44:33;;;;;;;;;2.00;2.00;;;;;14.18;48.31;101486.09;5089729;27;45480;-47
2022/09/18 06:46:58;;;;;;;;;2.00;2.00;;;;;14.15;48.69;101487.06;5085796;27;64658;-47
2022/09/18 06:49:24;;;;;;;;;2.00;2.00;;;;;14.16;48.66;101485.28;5096090;27;45436;-45
2022/09/18 06:51:49;;;;;;;;;3.00;3.00;;;;;14.17;49.10;101482.59;5095425;27;69699;-44
2022/09/18 06:54:15;;;;;;;;;3.00;2.25;;;;;14.20;48.89;101486.91;5098005;27;67897;-47
2022/09/18 06:56:41;;;;;;;;;2.00;2.00;;;;;14.21;48.75;101486.00;5113695;27;45255;-44
2022/09/18 06:59:07;;;;;;;;;2.00;2.00;;;;;14.21;48.80;101483.38;5095217;27;45522;-45
2022/09/18 07:01:32;;;;;;;;;3.00;3.00;;;;;14.20;48.90;101485.16;5089490;27;56303;-45
2022/09/18 07:03:58;;;;;;;;;3.00;2.75;;;;;14.23;49.21;101487.69;5101132;27;45249;-44
2022/09/18 07:06:23;;;;;;;;;3.00;3.00;;;;;14.23;49.25;101479.78;5100412;27;70505;-45
2022/09/18 07:08:49;;;;;;;;;3.00;3.00;;;;;14.23;49.40;101482.41;5091305;27;45456;-44
2022/09/18 07:11:14;;;;;;;;;2.00;2.00;;;;;14.24;48.97;101476.25;5095560;27;55570;-45
2022/09/18 07:13:40;;;;;;;;;2.00;2.00;;;;;14.30;49.50;101487.50;5101641;27;45304;-47
2022/09/18 07:16:05;;;;;;;;;3.75;2.50;;;;;14.32;49.14;101483.06;5093358;27;45315;-45
2022/09/18 07:18:31;;;;;;;;;5.25;3.75;;;;;14.34;49.19;101487.38;5099670;27;45438;-45
2022/09/18 07:20:59;;;;;;;;;3.25;3.00;;;;;14.39;49.30;101495.97;5103809;27;53094;-46
2022/09/18 07:23:25;;;;;;;;;2.75;2.00;;;;;14.44;48.84;101493.22;5104693;27;46113;-46
2022/09/18 07:25:51;;;;;;;;;5.25;3.50;;;;;14.50;48.88;101490.41;5094504;27;45797;-47
2022/09/18 07:28:16;;;;;;;;;4.00;3.00;;;;;14.54;49.30;101486.75;5088316;27;65121;-45
2022/09/18 07:30:41;;;;;;;;;2.75;2.75;;;;;14.61;48.86;101487.47;5091995;27;45463;-45
2022/09/18 07:33:08;;;;;;;;;3.25;3.25;;;;;14.66;49.03;101487.28;5092705;27;45417;-43
2022/09/18 07:35:34;;;;;;;;;4.75;3.00;;;;;14.72;48.58;101489.75;5095464;27;45434;-45
2022/09/18 07:38:00;;;;;;;;;5.25;3.25;;;;;14.76;48.61;101481.66;5083820;27;45363;-46
2022/09/18 07:40:26;;;;;;;;;5.25;4.00;;;;;14.83;49.13;101486.75;5087676;27;45462;-47
2022/09/18 07:42:52;;;;;;;;;4.25;3.50;;;;;14.86;49.04;101490.16;5092062;27;45420;-45
2022/09/18 07:45:18;;;;;;;;;5.75;3.00;;;;;14.91;48.72;101495.25;5087592;27;45278;-47
2022/09/18 07:47:43;;;;;;;;;2.00;2.00;;;;;14.93;49.09;101490.81;5090748;27;57151;-50
2022/09/18 07:50:14;;;;;;;;;5.50;3.00;;;;;14.96;48.81;101495.97;5115948;27;72132;-48
2022/09/18 07:52:47;;;;;;;;;5.75;4.00;;;;;15.00;48.91;101495.81;5107476;27;46902;-47
2022/09/18 07:55:12;;;;;;;;;4.00;3.00;;;;;15.04;48.84;101501.84;5091923;27;45239;-46
2022/09/18 07:57:38;;;;;;;;;5.50;3.50;;;;;15.07;49.00;101499.13;5096889;27;65448;-51
2022/09/18 08:00:05;;;;;;;;;4.00;4.00;;;;;15.11;49.07;101497.25;5092013;27;45449;-45
2022/09/18 08:02:31;;;;;;;;;2.00;0.00;;;;;15.13;48.70;101500.69;5096061;27;45433;-46
2022/09/18 08:04:56;;;;;;;;;4.00;4.00;;;;;15.12;48.75;101494.56;5099262;27;67059;-46
2022/09/18 08:07:26;;;;;;;;;3.50;3.00;;;;;15.18;49.02;101498.75;5097694;27;64939;-49
2022/09/18 08:09:51;;;;;;;;;3.75;3.00;;;;;15.21;48.75;101509.22;5097415;27;45461;-44
2022/09/18 08:12:16;;;;;;;;;2.00;2.00;;;;;15.23;49.25;101504.75;5099291;27;70289;-45
2022/09/18 08:14:42;;;;;;;;;4.00;2.50;;;;;15.27;49.00;101505.50;5098401;27;45384;-47
2022/09/18 08:17:07;;;;;;;;;3.75;2.50;;;;;15.31;48.95;101507.09;5098138;27;68593;-46
2022/09/18 08:19:33;;;;;;;;;1.75;1.75;;;;;15.35;48.70;101499.03;5101136;27;50267;-48
2022/09/18 08:21:58;;;;;;;;;5.75;4.00;;;;;15.41;48.73;101515.59;5094746;27;47198;-46
2022/09/18 08:24:23;;;;;;;;;5.00;3.25;;;;;15.46;48.37;101511.00;5097045;27;64702;-44
2022/09/18 08:26:49;;;;;;;;;4.75;3.50;;;;;15.49;48.63;101510.88;5096887;27;45447;-52
2022/09/18 08:29:17;;;;;;;;;5.75;3.75;;;;;15.51;48.25;101511.69;5071373;27;45477;-49
2022/09/18 08:31:44;;;;;;;;;3.50;3.00;;;;;15.55;48.46;101516.81;5091028;27;46316;-48
2022/09/18 08:34:09;;;;;;;;;7.00;5.00;;;;;15.60;48.67;101508.75;5093497;27;45763;-49
2022/09/18 08:36:34;;;;;;;;;7.00;4.50;;;;;15.63;48.20;101515.66;5093744;27;59661;-45
2022/09/18 08:39:00;;;;;;;;;4.00;4.00;;;;;15.66;48.28;101505.88;5089104;27;58753;-48
2022/09/18 08:41:38;;;;;;;;;2.25;2.25;;;;;15.69;48.24;101508.41;5103812;27;45325;-47
2022/09/18 08:44:10;;;;;;;;;3.75;3.75;;;;;15.70;47.78;101515.38;5095165;27;46010;-45
2022/09/18 08:46:42;;;;;;;;;7.25;3.75;;;;;15.74;47.86;101514.41;5081819;27;45349;-43
2022/09/18 08:49:20;;;;;;;;;6.25;6.00;;;;;15.76;47.76;101514.38;5108924;27;45311;-46
2022/09/18 08:52:03;;;;;;;;;8.00;5.25;;;;;15.81;48.04;101507.13;5088332;27;45663;-50
2022/09/18 08:54:41;;;;;;;;;4.00;3.75;;;;;15.86;47.73;101507.81;5099331;27;45784;-46
2022/09/18 08:57:20;;;;;;;;;4.25;3.75;;;;;15.93;47.55;101511.94;5084679;27;45478;-48
2022/09/18 08:59:52;;;;;;;;;5.50;4.00;;;;;16.00;47.53;101506.44;5094372;27;45480;-45
2022/09/18 09:02:26;;;;;;;;;7.25;6.00;;;;;16.07;47.14;101507.94;5091333;27;45327;-47
2022/09/18 09:04:56;;;;;;;;;6.00;4.50;;;;;16.11;47.21;101515.69;5102655;27;45994;-44
2022/09/18 09:07:46;;;;;;;;;7.00;4.50;;;;;16.17;46.97;101519.88;5097885;27;45250;-46
2022/09/18 09:10:49;;;;;;;;;2.25;1.00;;;;;16.19;46.91;101517.19;5097977;27;45689;-45
2022/09/18 09:13:43;;;;;;;;;2.25;2.25;;;;;16.22;47.02;101517.03;5087893;27;46964;-45
2022/09/18 09:16:21;;;;;;;;;2.75;1.75;;;;;16.26;46.78;101516.03;5095232;27;45570;-48
2022/09/18 09:18:49;;;;;;;;;2.75;2.75;;;;;16.30;46.96;101507.91;5096049;27;45224;-46
2022/09/18 09:21:22;;;;;;;;;3.50;3.50;;;;;16.39;46.53;101505.84;5086174;27;45425;-46
2022/09/18 09:23:57;;;;;;;;;2.00;2.00;;;;;16.45;46.16;101498.53;5100166;27;45309;-48
2022/09/18 09:26:23;;;;;;;;;1.75;1.75;;;;;16.49;46.24;101500.13;5098123;27;45337;-48
2022/09/18 09:28:51;;;;;;;;;2.50;2.25;;;;;16.56;45.90;101502.56;5091903;27;45387;-47
2022/09/18 09:31:20;;;;;;;;;4.50;2.00;;;;;16.60;45.70;101499.72;5086819;27;45377;-44
2022/09/18 09:33:55;;;;;;;;;2.50;2.50;;;;;16.67;45.92;101505.63;5088909;27;45509;-48
2022/09/18 09:36:25;;;;;;;;;2.00;2.00;;;;;16.73;45.70;101497.41;5081767;27;45265;-50
2022/09/18 09:39:06;;;;;;;;;3.00;3.00;;;;;16.80;45.58;101500.69;5099150;27;45441;-47
2022/09/18 09:41:41;;;;;;;;;3.25;1.25;;;;;16.89;45.15;101492.41;5096194;27;45407;-47
2022/09/18 09:44:29;;;;;;;;;4.25;3.00;;;;;16.95;44.78;101492.16;5105835;27;46271;-47
2022/09/18 09:47:12;;;;;;;;;2.75;2.75;;;;;17.02;44.56;101496.28;5108279;27;45391;-49
2022/09/18 09:50:09;;;;;;;;;2.00;1.50;;;;;17.09;44.47;101496.88;5088955;27;45246;-44
2022/09/18 09:52:36;;;;;;;;;4.50;3.25;;;;;17.15;44.22;101501.91;5098740;27;45259;-48
2022/09/18 09:55:18;;;;;;;;;3.75;1.75;;;;;17.24;43.94;101505.94;5086931;27;46378;-51
2022/09/18 09:57:58;;;;;;;;;4.50;2.00;;;;;17.28;43.66;101491.66;5097814;27;45330;-48
2022/09/18 10:00:24;;;;;;;;;2.00;2.00;;;;;17.34;43.58;101495.84;5096059;27;45410;-44
2022/09/18 10:03:41;;;;;;;;;3.00;2.00;;;;;17.40;43.32;101490.25;5089642;27;45381;-49
2022/09/18 10:06:31;;;;;;;;;3.50;2.00;;;;;17.47;43.36;101486.44;5098530;27;46154;-49
2022/09/18 10:09:17;;;;;;;;;1.00;1.00;;;;;17.55;42.94;101486.09;5086810;27;45769;-47
2022/09/18 10:12:08;;;;;;;;;5.50;1.50;;;;;17.61;42.77;101485.81;5096176;27;45236;-49
2022/09/18 10:14:34;;;;;;;;;3.00;1.75;;;;;17.68;42.40;101483.75;5074470;27;45529;-52
2022/09/18 10:17:02;;;;;;;;;3.00;1.00;;;;;17.73;42.40;101484.41;5092098;27;46108;-45
2022/09/18 10:19:34;;;;;;;;;2.50;1.75;;;;;17.78;42.12;101480.63;5091064;27;45754;-46
2022/09/18 10:22:04;;;;;;;;;5.75;2.50;;;;;17.82;42.23;101476.06;5094747;27;45303;-46
2022/09/18 10:24:38;;;;;;;;;2.00;2.00;;;;;17.86;41.51;101469.72;5094176;27;45424;-45
2022/09/18 10:27:10;;;;;;;;;2.25;1.00;;;;;17.91;40.88;101477.47;5091599;27;45557;-46
2022/09/18 10:29:36;;;;;;;;;4.25;3.75;;;;;17.90;41.28;101466.00;5092834;27;45370;-50
2022/09/18 10:32:01;;;;;;;;;3.75;2.00;;;;;17.94;41.22;101464.94;5080153;27;45444;-48
2022/09/18 10:34:41;;;;;;;;;4.00;2.00;;;;;17.98;41.15;101466.50;5089984;27;45509;-45
2022/09/18 10:37:28;;;;;;;;;3.75;2.00;;;;;18.02;40.99;101461.91;5092555;27;45487;-44
2022/09/18 10:40:00;;;;;;;;;4.00;3.00;;;;;18.06;40.70;101465.28;5083421;27;45761;-48
2022/09/18 10:42:31;;;;;;;;;3.00;1.75;;;;;18.08;40.74;101460.78;5092227;27;59733;-46
2022/09/18 10:45:01;;;;;;;;;2.25;2.00;;;;;18.09;40.88;101462.50;5099542;27;45508;-45
2022/09/18 10:47:36;;;;;;;;;2.75;1.75;;;;;18.11;40.79;101457.97;5093327;27;45341;-47
2022/09/18 10:50:07;;;;;;;;;4.00;2.75;;;;;18.14;40.92;101450.75;5096339;27;45970;-45
2022/09/18 10:52:33;;;;;;;;;3.25;1.75;;;;;18.16;40.57;101451.53;5089986;27;45374;-45
2022/09/18 10:55:08;;;;;;;;;3.00;2.75;;;;;18.20;40.78;101455.78;5088116;27;45576;-46
2022/09/18 10:57:48;;;;;;;;;4.25;2.00;;;;;18.24;40.70;101453.84;5094787;27;46324;-46
2022/09/18 11:00:32;;;;;;;;;7.25;5.50;;;;;18.29;39.95;101457.13;5092610;27;45451;-51
2022/09/18 11:03:21;;;;;;;;;4.00;4.00;;;;;18.33;40.24;101457.84;5086217;27;45340;-47
2022/09/18 11:05:50;;;;;;;;;5.00;3.25;;;;;18.36;39.74;101457.66;5131375;27;45359;-49
2022/09/18 11:08:19;;;;;;;;;3.50;2.00;;;;;18.40;40.09;101453.97;5094945;27;46482;-46
2022/09/18 11:10:49;;;;;;;;;7.00;3.25;;;;;18.44;40.20;101452.03;5097495;27;45860;-46
2022/09/18 11:13:23;;;;;;;;;3.25;3.00;;;;;18.47;40.12;101452.72;5086843;27;45362;-48
2022/09/18 11:15:52;;;;;;;;;5.00;3.25;;;;;18.53;39.88;101448.91;5091498;27;45229;-51
2022/09/18 11:18:18;;;;;;;;;4.50;4.00;;;;;18.59;39.66;101445.94;5089203;27;46090;-49
2022/09/18 11:20:46;;;;;;;;;6.75;4.00;;;;;18.64;39.87;101433.31;5090507;27;45430;-49
2022/09/18 11:23:26;;;;;;;;;3.00;2.00;;;;;18.68;39.99;101448.16;5092412;27;69388;-50
2022/09/18 11:26:18;;;;;;;;;3.00;3.00;;;;;18.78;40.33;101441.44;5091971;27;45416;-50
2022/09/18 11:29:24;;;;;;;;;4.00;2.00;;;;;18.89;40.06;101437.44;5084299;27;46050;-50
2022/09/18 11:32:16;;;;;;;;;7.25;3.25;;;;;18.96;39.81;101436.19;5096309;27;45265;-50
2022/09/18 11:34:50;;;;;;;;;3.00;2.00;;;;;19.04;39.94;101441.13;5102535;27;45905;-46
2022/09/18 11:37:25;;;;;;;;;5.50;3.00;;;;;19.08;39.90;101434.69;5100119;27;45368;-47